Time;durP1;ratioP1;P1;durP2;ratioP2;P2;SDS_P1;SDS_P2;PMS_P1;PMS_P2;Temp;Humidity;BMP_temperature;BMP_pressure;BME280_temperature;BME280_humidity;BME280_pressure;Samples;Min_cycle;Max_cycle;Signal;HPM_P1;HPM_P2
2021/05/24 00:00:50;;;;;;;;;;;;;;;15.54;54.27;99349.25;3469852;28;19929;-42
2021/05/24 00:02:31;;;;;;;;;;;;;;;15.56;52.43;99344.00;3467260;28;19980;-42
2021/05/24 00:04:12;;;;;;;;;;;;;;;15.59;51.63;99351.81;3462766;28;19937;-42
2021/05/24 00:05:54;;;;;;;;;;;;;;;15.62;50.80;99357.00;3459916;28;19929;-42
2021/05/24 00:07:35;;;;;;;;;;;;;;;15.66;50.88;99365.69;3467536;28;19945;-42
2021/05/24 00:09:16;;;;;;;;;;;;;;;15.69;49.83;99369.13;3469646;28;19936;-42
2021/05/24 00:10:58;;;;;;;;;;;;;;;15.75;48.75;99374.31;3461771;28;20031;-42
2021/05/24 00:12:46;;;;;;;;;;;;;;;15.79;49.33;99382.97;3457157;28;19933;-45
2021/05/24 00:14:28;;;;;;;;;;;;;;;15.82;49.04;99382.06;3456767;28;20072;-45
2021/05/24 00:16:10;;;;;;;;;;;;;;;15.83;49.06;99387.28;3455159;28;19980;-42
2021/05/24 00:17:51;;;;;;;;;;;;;;;15.85;49.61;99382.88;3465419;28;19933;-41
2021/05/24 00:19:32;;;;;;;;;;;;;;;15.85;49.55;99389.88;3462259;28;19973;-42
2021/05/24 00:21:13;;;;;;;;;;;;;;;15.86;49.69;99388.97;3455345;28;19936;-42
2021/05/24 00:22:55;;;;;;;;;;;;;;;15.85;50.00;99389.88;3459595;28;19980;-42
2021/05/24 00:24:36;;;;;;;;;;;;;;;15.85;50.76;99398.59;3455106;28;19934;-42
2021/05/24 00:26:20;;;;;;;;;;;;;;;15.84;50.96;99403.81;3460887;28;19929;-42
2021/05/24 00:28:01;;;;;;;;;;;;;;;15.83;50.96;99412.56;3465238;28;19969;-42
2021/05/24 00:29:42;;;;;;;;;;;;;;;15.82;50.83;99401.22;3456267;28;20019;-42
2021/05/24 00:31:24;;;;;;;;;;;;;;;15.80;51.38;99403.00;3457452;28;19929;-42
2021/05/24 00:33:06;;;;;;;;;;;;;;;15.80;51.90;99408.22;3455105;28;19929;-42
2021/05/24 00:34:47;;;;;;;;;;;;;;;15.78;51.91;99418.72;3456019;28;20434;-42
2021/05/24 00:36:28;;;;;;;;;;;;;;;15.75;52.90;99413.53;3468387;28;19932;-45
2021/05/24 00:38:10;;;;;;;;;;;;;;;15.73;54.05;99424.88;3463518;28;20026;-46
2021/05/24 00:39:51;;;;;;;;;;;;;;;15.69;55.38;99428.44;3465514;28;19960;-45
2021/05/24 00:41:33;;;;;;;;;;;;;;;15.64;55.15;99430.22;3455800;28;20409;-45
2021/05/24 00:43:14;;;;;;;;;;;;;;;15.57;55.85;99443.31;3461227;28;19910;-41
2021/05/24 00:44:55;;;;;;;;;;;;;;;15.52;56.87;99442.50;3458130;28;19929;-45
2021/05/24 00:46:37;;;;;;;;;;;;;;;15.48;57.63;99450.41;3467953;28;19952;-46
2021/05/24 00:48:18;;;;;;;;;;;;;;;15.41;58.76;99457.44;3466796;28;19984;-47
2021/05/24 00:50:00;;;;;;;;;;;;;;;15.36;59.72;99457.44;3468400;28;19929;-48
2021/05/24 00:51:42;;;;;;;;;;;;;;;15.31;61.02;99461.00;3465394;28;19980;-45
2021/05/24 00:53:23;;;;;;;;;;;;;;;15.25;62.05;99467.16;3455781;28;19969;-44
2021/05/24 00:55:05;;;;;;;;;;;;;;;15.19;63.74;99472.44;3455327;28;19929;-44
2021/05/24 00:56:47;;;;;;;;;;;;;;;15.12;63.81;99469.00;3468688;28;19952;-46
2021/05/24 00:58:32;;;;;;;;;;;;;;;15.06;65.96;99476.88;3467711;28;19929;-45
2021/05/24 01:00:14;;;;;;;;;;;;;;;14.96;66.56;99476.09;3466822;28;19929;-45
2021/05/24 01:01:56;;;;;;;;;;;;;;;14.84;67.54;99465.75;3455660;28;20019;-45
2021/05/24 01:03:37;;;;;;;;;;;;;;;14.78;67.62;99471.88;3454622;28;19936;-45
2021/05/24 01:05:18;;;;;;;;;;;;;;;14.72;67.71;99469.28;3466561;28;19976;-45
2021/05/24 01:07:00;;;;;;;;;;;;;;;14.66;69.52;99469.34;3466776;28;19929;-45
2021/05/24 01:08:41;;;;;;;;;;;;;;;14.58;69.82;99471.97;3468618;28;19929;-44
2021/05/24 01:10:22;;;;;;;;;;;;;;;14.53;69.70;99473.75;3459174;28;19930;-43
2021/05/24 01:12:05;;;;;;;;;;;;;;;14.49;70.70;99474.66;3454422;28;19982;-45
2021/05/24 01:13:46;;;;;;;;;;;;;;;14.44;70.35;99471.19;3460794;28;19929;-43
2021/05/24 01:15:28;;;;;;;;;;;;;;;14.40;70.38;99469.47;3467040;28;20331;-45
2021/05/24 01:17:09;;;;;;;;;;;;;;;14.37;71.26;99470.34;3469075;28;19929;-43
2021/05/24 01:18:50;;;;;;;;;;;;;;;14.36;71.83;99472.97;3466328;28;20369;-44
2021/05/24 01:20:32;;;;;;;;;;;;;;;14.36;72.04;99468.63;3468400;28;19980;-44
2021/05/24 01:22:17;;;;;;;;;;;;;;;14.34;72.45;99477.31;3467499;28;19972;-43
2021/05/24 01:23:58;;;;;;;;;;;;;;;14.34;72.72;99475.59;3466940;28;20310;-43
2021/05/24 01:25:40;;;;;;;;;;;;;;;14.34;72.06;99479.94;3468990;28;19981;-43
2021/05/24 01:27:21;;;;;;;;;;;;;;;14.32;72.13;99474.72;3465425;28;20479;-45
2021/05/24 01:29:02;;;;;;;;;;;;;;;14.33;73.48;99483.44;3469254;28;19929;-43
2021/05/24 01:30:45;;;;;;;;;;;;;;;14.34;74.15;99486.03;3466886;28;19929;-43
2021/05/24 01:32:26;;;;;;;;;;;;;;;14.35;75.54;99484.28;3468109;28;19979;-43
2021/05/24 01:34:07;;;;;;;;;;;;;;;14.35;76.09;99486.91;3463312;28;19929;-43
2021/05/24 01:35:49;;;;;;;;;;;;;;;14.32;77.07;99484.31;3467543;28;19929;-43
2021/05/24 01:37:30;;;;;;;;;;;;;;;14.28;77.77;99489.50;3455615;28;19977;-43
2021/05/24 01:39:12;;;;;;;;;;;;;;;14.24;77.83;99487.78;3454034;28;19936;-43
2021/05/24 01:40:53;;;;;;;;;;;;;;;14.19;78.14;99489.53;3462620;28;20429;-43
2021/05/24 01:42:34;;;;;;;;;;;;;;;14.14;77.88;99490.44;3461210;28;19952;-43
2021/05/24 01:44:26;;;;;;;;;;;;;;;14.08;77.25;99491.34;3454467;28;20015;-43
2021/05/24 01:46:07;;;;;;;;;;;;;;;14.03;77.94;99496.56;3466776;28;19929;-44
2021/05/24 01:47:48;;;;;;;;;;;;;;;13.98;78.18;99495.69;3467567;28;20394;-43
2021/05/24 01:49:30;;;;;;;;;;;;;;;13.94;79.17;99493.97;3468929;28;20314;-43
2021/05/24 01:51:11;;;;;;;;;;;;;;;13.93;79.88;99496.59;3466369;28;20471;-44
2021/05/24 01:52:52;;;;;;;;;;;;;;;13.89;80.63;99495.72;3468404;28;19965;-45
2021/05/24 01:54:34;;;;;;;;;;;;;;;13.86;80.85;99496.59;3460430;28;19976;-44
2021/05/24 01:56:15;;;;;;;;;;;;;;;13.84;81.47;99490.50;3456086;28;19929;-45
2021/05/24 01:57:56;;;;;;;;;;;;;;;13.84;81.99;99492.25;3467463;28;19929;-45
2021/05/24 01:59:38;;;;;;;;;;;;;;;13.80;81.98;99499.22;3466438;28;19929;-44
2021/05/24 02:01:19;;;;;;;;;;;;;;;13.78;82.52;99495.75;3468586;28;19952;-44
2021/05/24 02:03:01;;;;;;;;;;;;;;;13.77;82.47;99499.22;3463850;28;20407;-44
2021/05/24 02:04:42;;;;;;;;;;;;;;;13.75;82.14;99500.09;3455145;28;19956;-43
2021/05/24 02:06:23;;;;;;;;;;;;;;;13.74;82.78;99495.75;3466363;28;19929;-43
2021/05/24 02:08:08;;;;;;;;;;;;;;;13.73;83.07;99494.91;3467677;28;19929;-43
2021/05/24 02:09:49;;;;;;;;;;;;;;;13.74;83.28;99506.19;3467295;28;20433;-43
2021/05/24 02:11:30;;;;;;;;;;;;;;;13.74;83.64;99503.56;3467067;28;19960;-43
2021/05/24 02:13:11;;;;;;;;;;;;;;;13.71;83.44;99512.28;3451804;28;19941;-43
2021/05/24 02:14:53;;;;;;;;;;;;;;;13.71;83.55;99507.06;3460798;28;19979;-43
2021/05/24 02:16:37;;;;;;;;;;;;;;;13.69;83.55;99512.28;3471013;28;19987;-44
2021/05/24 02:18:18;;;;;;;;;;;;;;;13.67;83.69;99514.03;3468433;28;19929;-43
2021/05/24 02:20:00;;;;;;;;;;;;;;;13.65;83.97;99507.06;3469889;28;20353;-43
2021/05/24 02:21:41;;;;;;;;;;;;;;;13.62;83.99;99513.16;3469438;28;19999;-44
2021/05/24 02:23:23;;;;;;;;;;;;;;;13.60;84.38;99506.19;3469544;28;19976;-45
2021/05/24 02:25:06;;;;;;;;;;;;;;;13.59;84.96;99510.56;3457138;28;19937;-46
2021/05/24 02:26:47;;;;;;;;;;;;;;;13.59;85.04;99514.91;3462960;28;20406;-45
2021/05/24 02:28:28;;;;;;;;;;;;;;;13.57;85.69;99506.22;3456845;28;19969;-45
2021/05/24 02:30:10;;;;;;;;;;;;;;;13.55;85.25;99511.44;3461600;28;19929;-45
2021/05/24 02:31:52;;;;;;;;;;;;;;;13.54;85.65;99514.91;3469816;28;20406;-45
2021/05/24 02:33:33;;;;;;;;;;;;;;;13.53;85.46;99515.78;3457579;28;19929;-45
2021/05/24 02:35:15;;;;;;;;;;;;;;;13.52;85.69;99519.25;3465451;28;19987;-46
2021/05/24 02:36:57;;;;;;;;;;;;;;;13.50;85.66;99513.19;3457143;28;19982;-45
2021/05/24 02:38:38;;;;;;;;;;;;;;;13.49;85.72;99516.63;3456885;28;20418;-45
2021/05/24 02:40:20;;;;;;;;;;;;;;;13.48;86.30;99525.34;3470495;28;19968;-44
2021/05/24 02:42:02;;;;;;;;;;;;;;;13.48;85.97;99520.13;3468671;28;19969;-45
2021/05/24 02:43:43;;;;;;;;;;;;;;;13.45;85.81;99520.13;3469687;28;19929;-46
2021/05/24 02:45:24;;;;;;;;;;;;;;;13.44;86.34;99523.59;3459955;28;19984;-43
2021/05/24 02:47:05;;;;;;;;;;;;;;;13.43;86.40;99521.88;3455914;28;20294;-45
2021/05/24 02:48:46;;;;;;;;;;;;;;;13.40;86.49;99522.72;3467439;28;19929;-43
2021/05/24 02:50:28;;;;;;;;;;;;;;;13.38;86.77;99519.25;3468531;28;19937;-45
2021/05/24 02:52:09;;;;;;;;;;;;;;;13.37;87.01;99527.97;3470590;28;19975;-45
2021/05/24 02:53:51;;;;;;;;;;;;;;;13.36;87.09;99522.75;3468863;28;19929;-44
2021/05/24 02:55:32;;;;;;;;;;;;;;;13.35;86.86;99527.06;3469542;28;19936;-45
2021/05/24 02:57:13;;;;;;;;;;;;;;;13.35;87.41;99528.81;3469002;28;19929;-46
2021/05/24 02:58:54;;;;;;;;;;;;;;;13.31;86.98;99528.78;3469647;28;19983;-44
2021/05/24 03:00:35;;;;;;;;;;;;;;;13.30;87.15;99527.09;3457092;28;19988;-45
2021/05/24 03:02:25;;;;;;;;;;;;;;;13.28;87.29;99530.53;3460690;28;19929;-45
2021/05/24 03:04:08;;;;;;;;;;;;;;;13.26;87.28;99533.13;3456965;28;20310;-44
2021/05/24 03:05:49;;;;;;;;;;;;;;;13.25;87.45;99535.75;3469880;28;19936;-44
2021/05/24 03:07:30;;;;;;;;;;;;;;;13.20;87.30;99543.56;3469303;28;20003;-45
2021/05/24 03:09:13;;;;;;;;;;;;;;;13.17;87.35;99533.13;3458945;28;19969;-45
2021/05/24 03:10:54;;;;;;;;;;;;;;;13.14;87.18;99538.34;3462094;28;19976;-45
2021/05/24 03:12:35;;;;;;;;;;;;;;;13.11;87.36;99539.22;3456892;28;19988;-45
2021/05/24 03:14:16;;;;;;;;;;;;;;;13.08;87.94;99531.38;3460762;28;19929;-44
2021/05/24 03:15:58;;;;;;;;;;;;;;;13.06;88.07;99537.47;3456129;28;19936;-45
2021/05/24 03:17:39;;;;;;;;;;;;;;;13.03;88.05;99533.13;3463421;28;20020;-43
2021/05/24 03:19:20;;;;;;;;;;;;;;;13.01;88.28;99534.84;3469226;28;19929;-44
2021/05/24 03:21:01;;;;;;;;;;;;;;;13.00;88.86;99535.75;3459369;28;19948;-44
2021/05/24 03:22:43;;;;;;;;;;;;;;;13.00;88.76;99532.25;3455584;28;19929;-43
2021/05/24 03:24:25;;;;;;;;;;;;;;;12.97;88.77;99529.66;3463909;28;19929;-43
2021/05/24 03:26:06;;;;;;;;;;;;;;;12.94;88.37;99528.75;3467650;28;19929;-43
2021/05/24 03:27:47;;;;;;;;;;;;;;;12.93;88.80;99527.03;3470498;28;19929;-45
2021/05/24 03:29:29;;;;;;;;;;;;;;;12.92;88.97;99527.03;3468159;28;19972;-45
2021/05/24 03:31:10;;;;;;;;;;;;;;;12.90;88.79;99523.53;3469330;28;19929;-45
2021/05/24 03:32:51;;;;;;;;;;;;;;;12.90;88.72;99528.75;3459463;28;19987;-44
2021/05/24 03:34:32;;;;;;;;;;;;;;;12.90;89.05;99529.63;3455750;28;19977;-45
2021/05/24 03:36:13;;;;;;;;;;;;;;;12.91;89.23;99533.09;3454776;28;20038;-45
2021/05/24 03:37:55;;;;;;;;;;;;;;;12.92;89.36;99529.63;3459963;28;20069;-45
2021/05/24 03:39:36;;;;;;;;;;;;;;;12.93;89.97;99526.19;3459350;28;19929;-44
2021/05/24 03:41:17;;;;;;;;;;;;;;;12.93;89.84;99536.59;3467831;28;20018;-44
2021/05/24 03:42:59;;;;;;;;;;;;;;;12.95;89.98;99529.66;3469420;28;19932;-43
2021/05/24 03:44:43;;;;;;;;;;;;;;;12.96;90.39;99541.78;3468677;28;19933;-44
2021/05/24 03:46:24;;;;;;;;;;;;;;;12.97;90.15;99535.72;3468616;28;19929;-44
2021/05/24 03:48:06;;;;;;;;;;;;;;;13.01;90.08;99536.59;3456360;28;20032;-43
2021/05/24 03:49:47;;;;;;;;;;;;;;;13.00;90.13;99540.94;3464455;28;19929;-44
2021/05/24 03:51:28;;;;;;;;;;;;;;;13.00;90.44;99540.94;3470030;28;19929;-43
2021/05/24 03:53:09;;;;;;;;;;;;;;;13.01;90.76;99537.47;3461946;28;20383;-44
2021/05/24 03:54:51;;;;;;;;;;;;;;;13.02;90.89;99539.22;3455497;28;19930;-45
2021/05/24 03:56:32;;;;;;;;;;;;;;;13.00;90.94;99543.56;3457736;28;19929;-43
2021/05/24 03:58:13;;;;;;;;;;;;;;;13.01;91.17;99545.28;3460804;28;20394;-44
2021/05/24 03:59:55;;;;;;;;;;;;;;;12.99;91.16;99547.00;3456758;28;20389;-44
2021/05/24 04:01:37;;;;;;;;;;;;;;;12.97;90.97;99548.75;3455087;28;20366;-43
2021/05/24 04:03:18;;;;;;;;;;;;;;;12.93;90.95;99550.47;3468462;28;19951;-44
2021/05/24 04:05:02;;;;;;;;;;;;;;;12.90;90.96;99546.97;3465618;28;19929;-44
2021/05/24 04:06:47;;;;;;;;;;;;;;;12.87;91.16;99541.75;3469217;28;19936;-44
2021/05/24 04:08:35;;;;;;;;;;;;;;;12.85;91.48;99549.53;3468905;28;19975;-44
2021/05/24 04:10:18;;;;;;;;;;;;;;;12.84;91.69;99545.22;3467399;28;19975;-44
2021/05/24 04:11:59;;;;;;;;;;;;;;;12.85;92.23;99551.28;3469646;28;19983;-44
2021/05/24 04:13:45;;;;;;;;;;;;;;;12.85;92.08;99548.69;3466324;28;19956;-44
2021/05/24 04:15:26;;;;;;;;;;;;;;;12.84;92.04;99552.13;3469024;28;20310;-44
2021/05/24 04:17:08;;;;;;;;;;;;;;;12.84;92.38;99550.44;3467750;28;19936;-44
2021/05/24 04:18:50;;;;;;;;;;;;;;;12.83;92.57;99553.03;3468564;28;19929;-44
2021/05/24 04:20:32;;;;;;;;;;;;;;;12.82;92.49;99553.88;3457363;28;19980;-46
2021/05/24 04:22:13;;;;;;;;;;;;;;;12.81;92.49;99555.63;3456128;28;19933;-44
2021/05/24 04:23:54;;;;;;;;;;;;;;;12.80;92.30;99560.81;3470308;28;19991;-44
2021/05/24 04:25:36;;;;;;;;;;;;;;;12.77;92.67;99557.34;3467305;28;19929;-43
2021/05/24 04:27:17;;;;;;;;;;;;;;;12.78;92.40;99563.41;3468835;28;19929;-43
2021/05/24 04:28:58;;;;;;;;;;;;;;;12.77;92.57;99561.69;3467895;28;19980;-44
2021/05/24 04:30:40;;;;;;;;;;;;;;;12.75;92.41;99563.41;3468569;28;19933;-43
2021/05/24 04:32:21;;;;;;;;;;;;;;;12.73;92.67;99565.97;3457375;28;19930;-44
2021/05/24 04:34:02;;;;;;;;;;;;;;;12.72;92.73;99564.25;3459528;28;19980;-44
2021/05/24 04:35:43;;;;;;;;;;;;;;;12.72;92.73;99558.19;3469679;28;19983;-43
2021/05/24 04:37:24;;;;;;;;;;;;;;;12.70;93.11;99563.41;3462908;28;20060;-44
2021/05/24 04:39:06;;;;;;;;;;;;;;;12.70;93.17;99567.72;3455592;28;20084;-45
2021/05/24 04:40:48;;;;;;;;;;;;;;;12.68;93.28;99564.25;3460991;28;19928;-44
2021/05/24 04:42:29;;;;;;;;;;;;;;;12.66;93.37;99561.63;3468311;28;20015;-46
2021/05/24 04:44:12;;;;;;;;;;;;;;;12.66;93.44;99573.78;3455644;28;19936;-46
2021/05/24 04:45:53;;;;;;;;;;;;;;;12.65;93.12;99574.66;3464102;28;20418;-45
2021/05/24 04:47:35;;;;;;;;;;;;;;;12.61;92.78;99573.75;3469536;28;19995;-45
2021/05/24 04:49:16;;;;;;;;;;;;;;;12.61;92.92;99571.16;3463418;28;20374;-46
2021/05/24 04:50:57;;;;;;;;;;;;;;;12.60;93.06;99576.38;3455755;28;19967;-44
2021/05/24 04:52:39;;;;;;;;;;;;;;;12.59;93.10;99575.47;3466002;28;19944;-45
2021/05/24 04:54:20;;;;;;;;;;;;;;;12.57;93.02;99588.47;3468700;28;19929;-46
2021/05/24 04:56:02;;;;;;;;;;;;;;;12.55;92.40;99586.75;3457728;28;20429;-45
2021/05/24 04:57:43;;;;;;;;;;;;;;;12.54;92.35;99587.59;3454536;28;20371;-45
2021/05/24 04:59:24;;;;;;;;;;;;;;;12.51;92.60;99588.47;3466879;28;20313;-45
2021/05/24 05:01:05;;;;;;;;;;;;;;;12.50;92.45;99585.84;3464137;28;19975;-44
2021/05/24 05:02:47;;;;;;;;;;;;;;;12.48;92.15;99585.84;3455955;28;19930;-44
2021/05/24 05:04:28;;;;;;;;;;;;;;;12.46;91.79;99597.13;3461064;28;19973;-44
2021/05/24 05:06:09;;;;;;;;;;;;;;;12.42;91.63;99601.44;3454734;28;19929;-44
2021/05/24 05:07:50;;;;;;;;;;;;;;;12.41;91.97;99598.84;3461763;28;20306;-43
2021/05/24 05:09:32;;;;;;;;;;;;;;;12.39;92.12;99598.81;3464864;28;19933;-43
2021/05/24 05:11:14;;;;;;;;;;;;;;;12.36;91.77;99610.09;3468797;28;20386;-43
2021/05/24 05:12:55;;;;;;;;;;;;;;;12.36;92.03;99615.28;3466941;28;19972;-43
2021/05/24 05:14:36;;;;;;;;;;;;;;;12.37;91.92;99610.94;3467314;28;19936;-43
2021/05/24 05:16:21;;;;;;;;;;;;;;;12.35;92.01;99612.69;3460170;28;19929;-45
2021/05/24 05:18:02;;;;;;;;;;;;;;;12.35;92.31;99607.47;3454444;28;20394;-45
2021/05/24 05:19:43;;;;;;;;;;;;;;;12.35;92.21;99621.34;3466369;28;19929;-46
2021/05/24 05:21:24;;;;;;;;;;;;;;;12.34;92.34;99619.59;3466672;28;19940;-45
2021/05/24 05:23:06;;;;;;;;;;;;;;;12.36;92.41;99622.22;3468957;28;19968;-45
2021/05/24 05:24:47;;;;;;;;;;;;;;;12.38;92.89;99626.56;3466718;28;20423;-45
2021/05/24 05:26:29;;;;;;;;;;;;;;;12.42;93.17;99631.78;3468586;28;19983;-46
2021/05/24 05:28:11;;;;;;;;;;;;;;;12.43;93.28;99633.53;3460672;28;19929;-45
2021/05/24 05:29:52;;;;;;;;;;;;;;;12.44;93.12;99630.94;3457284;28;19995;-45
2021/05/24 05:31:33;;;;;;;;;;;;;;;12.44;92.81;99635.28;3468798;28;19952;-45
2021/05/24 05:33:14;;;;;;;;;;;;;;;12.45;92.64;99639.59;3466621;28;19972;-44
2021/05/24 05:34:55;;;;;;;;;;;;;;;12.46;92.75;99643.97;3468921;28;19995;-44
2021/05/24 05:36:37;;;;;;;;;;;;;;;12.47;93.06;99637.88;3466665;28;19936;-46
2021/05/24 05:38:18;;;;;;;;;;;;;;;12.49;92.77;99651.78;3469120;28;19936;-45
2021/05/24 05:39:59;;;;;;;;;;;;;;;12.51;93.12;99645.72;3459901;28;19980;-47
2021/05/24 05:41:41;;;;;;;;;;;;;;;12.52;93.27;99657.00;3454598;28;19934;-46
2021/05/24 05:43:22;;;;;;;;;;;;;;;12.55;93.51;99657.00;3457178;28;19952;-48
2021/05/24 05:45:04;;;;;;;;;;;;;;;12.54;93.35;99650.94;3467018;28;19929;-48
2021/05/24 05:46:45;;;;;;;;;;;;;;;12.58;93.56;99657.03;3468965;28;20206;-46
2021/05/24 05:48:26;;;;;;;;;;;;;;;12.60;93.46;99660.50;3464100;28;19977;-45
2021/05/24 05:50:08;;;;;;;;;;;;;;;12.62;93.54;99663.97;3457883;28;19929;-47
2021/05/24 05:51:50;;;;;;;;;;;;;;;12.62;93.47;99666.59;3456515;28;20015;-46
2021/05/24 05:53:32;;;;;;;;;;;;;;;12.65;93.57;99671.81;3468816;28;19929;-44
2021/05/24 05:55:13;;;;;;;;;;;;;;;12.65;93.43;99666.63;3460545;28;19936;-45
2021/05/24 05:56:55;;;;;;;;;;;;;;;12.65;92.82;99673.56;3461813;28;19979;-44
2021/05/24 05:58:36;;;;;;;;;;;;;;;12.65;92.54;99673.56;3471200;28;20298;-44
2021/05/24 06:00:18;;;;;;;;;;;;;;;12.65;92.50;99682.22;3467559;28;19952;-47
2021/05/24 06:01:59;;;;;;;;;;;;;;;12.66;92.35;99676.13;3457478;28;20415;-47
2021/05/24 06:03:40;;;;;;;;;;;;;;;12.66;92.17;99683.94;3458554;28;19940;-44
2021/05/24 06:05:21;;;;;;;;;;;;;;;12.67;92.23;99683.09;3470273;28;19956;-46
2021/05/24 06:07:02;;;;;;;;;;;;;;;12.69;92.41;99689.19;3468242;28;20414;-44
2021/05/24 06:08:44;;;;;;;;;;;;;;;12.72;92.47;99685.75;3469294;28;20019;-44
2021/05/24 06:10:25;;;;;;;;;;;;;;;12.74;92.29;99686.63;3470991;28;21286;-46
2021/05/24 06:12:08;;;;;;;;;;;;;;;12.74;91.39;99687.47;3469857;28;20426;-45
2021/05/24 06:13:49;;;;;;;;;;;;;;;12.73;90.14;99687.47;3469669;28;19983;-47
2021/05/24 06:15:31;;;;;;;;;;;;;;;12.72;90.28;99696.16;3466283;28;19996;-47
2021/05/24 06:17:12;;;;;;;;;;;;;;;12.72;90.12;99693.53;3470180;28;19955;-44
2021/05/24 06:18:53;;;;;;;;;;;;;;;12.71;89.99;99692.66;3461501;28;19929;-48
2021/05/24 06:20:35;;;;;;;;;;;;;;;12.72;89.92;99699.63;3456347;28;20037;-44
2021/05/24 06:22:17;;;;;;;;;;;;;;;12.71;90.45;99705.66;3465509;28;19959;-47
2021/05/24 06:23:58;;;;;;;;;;;;;;;12.71;90.34;99697.00;3468622;28;19972;-48
2021/05/24 06:25:41;;;;;;;;;;;;;;;12.72;90.16;99697.00;3471683;28;20385;-49
2021/05/24 06:27:22;;;;;;;;;;;;;;;12.70;90.08;99700.44;3463353;28;19987;-49
2021/05/24 06:29:04;;;;;;;;;;;;;;;12.71;89.73;99697.00;3456460;28;20358;-47
2021/05/24 06:30:45;;;;;;;;;;;;;;;12.73;89.64;99700.47;3460552;28;20007;-47
2021/05/24 06:32:27;;;;;;;;;;;;;;;12.74;89.21;99707.44;3468502;28;20306;-47
2021/05/24 06:34:08;;;;;;;;;;;;;;;12.75;89.19;99704.84;3470732;28;19929;-45
2021/05/24 06:35:49;;;;;;;;;;;;;;;12.77;89.27;99710.06;3468596;28;19936;-53
2021/05/24 06:37:30;;;;;;;;;;;;;;;12.79;88.61;99705.72;3471035;28;19980;-50
2021/05/24 06:39:12;;;;;;;;;;;;;;;12.81;88.49;99706.59;3463520;28;20322;-49
2021/05/24 06:40:53;;;;;;;;;;;;;;;12.83;87.94;99711.81;3459135;28;20437;-49
2021/05/24 06:42:35;;;;;;;;;;;;;;;12.80;87.47;99715.25;3461055;28;19936;-50
2021/05/24 06:44:16;;;;;;;;;;;;;;;12.79;87.21;99715.25;3459259;28;19929;-49
2021/05/24 06:45:57;;;;;;;;;;;;;;;12.80;86.92;99719.59;3470315;28;20310;-49
2021/05/24 06:47:39;;;;;;;;;;;;;;;12.83;87.52;99727.44;3468737;28;19933;-51
2021/05/24 06:49:20;;;;;;;;;;;;;;;12.85;87.37;99725.72;3470653;28;20500;-46
2021/05/24 06:51:01;;;;;;;;;;;;;;;12.89;87.66;99730.06;3464237;28;19929;-49
2021/05/24 06:52:42;;;;;;;;;;;;;;;12.92;87.40;99733.59;3456458;28;19940;-49
2021/05/24 06:54:23;;;;;;;;;;;;;;;12.95;87.17;99728.41;3460086;28;19952;-46
2021/05/24 06:56:05;;;;;;;;;;;;;;;13.03;87.52;99735.38;3455480;28;19936;-51
2021/05/24 06:57:47;;;;;;;;;;;;;;;13.09;88.21;99749.31;3460294;28;19944;-49
2021/05/24 06:59:28;;;;;;;;;;;;;;;13.14;87.38;99750.19;3468351;28;19933;-45
2021/05/24 07:01:09;;;;;;;;;;;;;;;13.13;86.22;99743.25;3470452;28;20307;-45
2021/05/24 07:02:51;;;;;;;;;;;;;;;13.18;85.95;99750.19;3464178;28;19929;-45
2021/05/24 07:04:32;;;;;;;;;;;;;;;13.15;84.26;99751.06;3457880;28;19933;-46
2021/05/24 07:06:13;;;;;;;;;;;;;;;13.17;84.83;99749.31;3461289;28;19936;-44
2021/05/24 07:07:54;;;;;;;;;;;;;;;13.21;85.47;99758.91;3455690;28;19976;-44
2021/05/24 07:09:36;;;;;;;;;;;;;;;13.26;85.96;99759.78;3464646;28;20346;-46
2021/05/24 07:11:17;;;;;;;;;;;;;;;13.29;85.10;99761.53;3467211;28;19933;-49
2021/05/24 07:12:59;;;;;;;;;;;;;;;13.33;84.90;99758.06;3470513;28;20413;-51
2021/05/24 07:14:43;;;;;;;;;;;;;;;13.40;85.36;99758.97;3464416;28;20465;-48
2021/05/24 07:16:24;;;;;;;;;;;;;;;13.43;84.93;99762.47;3458101;28;20279;-51
2021/05/24 07:18:05;;;;;;;;;;;;;;;13.51;85.70;99765.97;3460495;28;20386;-49
2021/05/24 07:19:47;;;;;;;;;;;;;;;13.59;85.72;99772.94;3469506;28;20027;-46
2021/05/24 07:21:28;;;;;;;;;;;;;;;13.63;84.87;99772.06;3457479;28;19930;-44
2021/05/24 07:23:09;;;;;;;;;;;;;;;13.65;84.19;99771.25;3460643;28;19929;-45
2021/05/24 07:24:52;;;;;;;;;;;;;;;13.71;84.71;99770.38;3456931;28;20302;-52
2021/05/24 07:26:34;;;;;;;;;;;;;;;13.78;85.17;99776.47;3455207;28;20016;-50
2021/05/24 07:28:15;;;;;;;;;;;;;;;13.85;84.72;99771.28;3469135;28;20059;-50
2021/05/24 07:29:56;;;;;;;;;;;;;;;13.95;84.24;99773.88;3469560;28;20410;-44
2021/05/24 07:31:37;;;;;;;;;;;;;;;13.99;81.89;99779.13;3466966;28;19975;-45
2021/05/24 07:33:18;;;;;;;;;;;;;;;14.05;83.69;99773.03;3456572;28;20391;-44
2021/05/24 07:35:00;;;;;;;;;;;;;;;14.19;84.67;99773.91;3465359;28;19977;-45
2021/05/24 07:36:41;;;;;;;;;;;;;;;14.33;85.02;99770.50;3456657;28;19933;-46
2021/05/24 07:38:22;;;;;;;;;;;;;;;14.50;84.52;99778.28;3459132;28;20384;-45
2021/05/24 07:40:04;;;;;;;;;;;;;;;14.64;82.95;99780.03;3470276;28;19929;-49
2021/05/24 07:41:45;;;;;;;;;;;;;;;14.79;83.77;99778.28;3457614;28;20412;-49
2021/05/24 07:43:26;;;;;;;;;;;;;;;14.94;83.54;99774.75;3464059;28;19933;-48
2021/05/24 07:45:08;;;;;;;;;;;;;;;15.01;82.62;99779.09;3457032;28;19930;-48
2021/05/24 07:46:49;;;;;;;;;;;;;;;15.10;82.66;99773.84;3455679;28;19929;-50
2021/05/24 07:48:31;;;;;;;;;;;;;;;15.15;81.48;99777.31;3470182;28;19929;-47
2021/05/24 07:50:12;;;;;;;;;;;;;;;15.21;81.19;99785.13;3467886;28;20422;-44
2021/05/24 07:51:53;;;;;;;;;;;;;;;15.25;80.47;99779.91;3469354;28;20960;-43
2021/05/24 07:53:34;;;;;;;;;;;;;;;15.33;81.86;99778.09;3468382;28;19969;-43
2021/05/24 07:55:15;;;;;;;;;;;;;;;15.40;81.87;99772.88;3469021;28;20386;-49
2021/05/24 07:56:56;;;;;;;;;;;;;;;15.41;79.74;99784.19;3456954;28;20288;-50
2021/05/24 07:58:38;;;;;;;;;;;;;;;15.41;79.33;99778.94;3459401;28;19976;-48
2021/05/24 08:00:21;;;;;;;;;;;;;;;15.41;80.19;99782.44;3470424;28;19929;-47
2021/05/24 08:02:03;;;;;;;;;;;;;;;15.44;79.91;99784.19;3468453;28;20026;-45
2021/05/24 08:03:44;;;;;;;;;;;;;;;15.53;81.41;99785.88;3469228;28;19929;-44
2021/05/24 08:05:25;;;;;;;;;;;;;;;15.65;83.07;99796.31;3468285;28;20350;-44
2021/05/24 08:07:07;;;;;;;;;;;;;;;15.79;81.08;99786.66;3468057;28;19929;-44
2021/05/24 08:08:48;;;;;;;;;;;;;;;15.92;81.13;99797.91;3468408;28;19972;-45
2021/05/24 08:10:29;;;;;;;;;;;;;;;15.99;79.45;99790.88;3467461;28;19929;-46
2021/05/24 08:12:11;;;;;;;;;;;;;;;16.09;80.03;99802.19;3469377;28;19935;-44
2021/05/24 08:13:54;;;;;;;;;;;;;;;16.22;78.83;99788.09;3467233;28;19933;-44
2021/05/24 08:15:35;;;;;;;;;;;;;;;16.27;78.73;99802.03;3469466;28;19936;-47
2021/05/24 08:17:16;;;;;;;;;;;;;;;16.25;76.18;99816.88;3467709;28;20034;-48
2021/05/24 08:18:57;;;;;;;;;;;;;;;16.17;75.23;99803.84;3468615;28;20291;-47
2021/05/24 08:20:38;;;;;;;;;;;;;;;16.09;73.87;99795.19;3457501;28;19930;-44
2021/05/24 08:22:20;;;;;;;;;;;;;;;16.06;75.25;99804.81;3455240;28;20003;-45
2021/05/24 08:24:01;;;;;;;;;;;;;;;16.09;76.53;99803.03;3465400;28;19979;-43
2021/05/24 08:25:42;;;;;;;;;;;;;;;16.13;77.29;99807.34;3463635;28;19940;-48
2021/05/24 08:27:23;;;;;;;;;;;;;;;16.16;76.61;99809.97;3455610;28;20366;-47
2021/05/24 08:29:15;;;;;;;;;;;;;;;16.22;76.42;99808.19;3459187;28;20012;-47
2021/05/24 08:30:56;;;;;;;;;;;;;;;16.16;75.01;99815.19;3455083;28;19929;-47
2021/05/24 08:32:37;;;;;;;;;;;;;;;16.08;73.87;99810.91;3448681;28;19976;-46
2021/05/24 08:34:19;;;;;;;;;;;;;;;15.99;74.19;99824.91;3463709;28;19929;-43
2021/05/24 08:36:00;;;;;;;;;;;;;;;15.92;73.71;99825.81;3469521;28;19952;-43
2021/05/24 08:37:41;;;;;;;;;;;;;;;15.89;74.40;99833.66;3467500;28;20024;-44
2021/05/24 08:39:22;;;;;;;;;;;;;;;15.90;75.63;99836.28;3468608;28;19980;-44
2021/05/24 08:41:07;;;;;;;;;;;;;;;15.87;75.09;99841.53;3459265;28;19975;-44
2021/05/24 08:42:49;;;;;;;;;;;;;;;15.85;75.03;99840.66;3454904;28;19960;-43
2021/05/24 08:44:31;;;;;;;;;;;;;;;15.79;75.85;99841.56;3453518;28;19930;-44
2021/05/24 08:46:12;;;;;;;;;;;;;;;15.73;74.96;99845.97;3461320;28;19929;-44
2021/05/24 08:47:53;;;;;;;;;;;;;;;15.69;73.52;99847.72;3455944;28;20012;-44
2021/05/24 08:49:35;;;;;;;;;;;;;;;15.63;74.22;99855.59;3453132;28;20446;-44